sensor_id;sensor_type;location;lat;lon;timestamp;noise_LAeq;noise_LA_min;noise_LA_max;noise_LA01;noise_LA95
67308;Laerm;57662;51.436;5.978;2023-01-09T00:00:03;37.80;35.09;43.76;;
67308;Laerm;57662;51.436;5.978;2023-01-09T00:00:15;41.70;35.75;58.31;;
67308;Laerm;57662;51.436;5.978;2023-01-09T00:00:28;37.82;35.36;52.74;;
67308;Laerm;57662;51.436;5.978;2023-01-09T00:00:39;37.58;35.58;41.54;;
67308;Laerm;57662;51.436;5.978;2023-01-09T00:00:50;38.27;35.55;46.93;;
67308;Laerm;57662;51.436;5.978;2023-01-09T00:01:00;38.74;35.89;48.37;;
67308;Laerm;57662;51.436;5.978;2023-01-09T00:01:12;37.73;35.61;43.54;;
67308;Laerm;57662;51.436;5.978;2023-01-09T00:01:25;39.42;35.72;53.84;;
67308;Laerm;57662;51.436;5.978;2023-01-09T00:01:38;38.73;35.55;48.27;;
67308;Laerm;57662;51.436;5.978;2023-01-09T00:01:49;39.13;35.87;49.59;;
67308;Laerm;57662;51.436;5.978;2023-01-09T00:02:00;41.89;36.18;50.12;;
67308;Laerm;57662;51.436;5.978;2023-01-09T00:02:10;37.22;35.69;42.38;;
67308;Laerm;57662;51.436;5.978;2023-01-09T00:02:21;36.96;34.99;41.68;;
67308;Laerm;57662;51.436;5.978;2023-01-09T00:02:31;36.94;35.39;43.70;;
67308;Laerm;57662;51.436;5.978;2023-01-09T00:02:42;37.56;35.79;48.36;;
67308;Laerm;57662;51.436;5.978;2023-01-09T00:02:53;37.57;35.98;43.28;;
67308;Laerm;57662;51.436;5.978;2023-01-09T00:03:03;39.10;36.43;50.09;;
67308;Laerm;57662;51.436;5.978;2023-01-09T00:03:14;41.48;36.55;52.59;;
67308;Laerm;57662;51.436;5.978;2023-01-09T00:03:24;38.51;35.53;46.10;;
67308;Laerm;57662;51.436;5.978;2023-01-09T00:03:35;37.93;35.82;41.96;;
67308;Laerm;57662;51.436;5.978;2023-01-09T00:03:45;37.24;35.30;40.51;;
67308;Laerm;57662;51.436;5.978;2023-01-09T00:03:56;38.07;35.77;53.80;;
67308;Laerm;57662;51.436;5.978;2023-01-09T00:04:06;37.73;35.58;49.00;;
67308;Laerm;57662;51.436;5.978;2023-01-09T00:04:17;37.53;35.87;46.21;;
67308;Laerm;57662;51.436;5.978;2023-01-09T00:04:28;37.39;35.43;44.86;;
67308;Laerm;57662;51.436;5.978;2023-01-09T00:04:38;37.69;35.40;43.11;;
67308;Laerm;57662;51.436;5.978;2023-01-09T00:04:48;38.33;35.32;45.46;;
67308;Laerm;57662;51.436;5.978;2023-01-09T00:04:59;40.39;35.47;51.58;;
67308;Laerm;57662;51.436;5.978;2023-01-09T00:05:09;40.26;36.14;50.45;;
67308;Laerm;57662;51.436;5.978;2023-01-09T00:05:20;44.06;36.59;57.19;;
67308;Laerm;57662;51.436;5.978;2023-01-09T00:05:30;45.48;36.72;57.91;;
67308;Laerm;57662;51.436;5.978;2023-01-09T00:05:41;46.25;36.80;57.80;;
67308;Laerm;57662;51.436;5.978;2023-01-09T00:05:51;47.70;36.60;60.21;;
67308;Laerm;57662;51.436;5.978;2023-01-09T00:06:01;37.75;35.21;47.88;;
67308;Laerm;57662;51.436;5.978;2023-01-09T00:06:12;38.17;35.64;45.06;;
67308;Laerm;57662;51.436;5.978;2023-01-09T00:06:22;38.16;35.83;46.62;;
67308;Laerm;57662;51.436;5.978;2023-01-09T00:06:32;38.78;35.67;47.74;;
67308;Laerm;57662;51.436;5.978;2023-01-09T00:06:43;42.58;35.69;55.29;;
67308;Laerm;57662;51.436;5.978;2023-01-09T00:06:55;37.52;35.01;44.96;;
67308;Laerm;57662;51.436;5.978;2023-01-09T00:07:05;37.08;34.80;40.47;;
67308;Laerm;57662;51.436;5.978;2023-01-09T00:07:16;37.19;35.23;44.14;;
67308;Laerm;57662;51.436;5.978;2023-01-09T00:07:26;37.43;35.20;42.49;;
67308;Laerm;57662;51.436;5.978;2023-01-09T00:07:36;38.10;35.21;45.75;;
67308;Laerm;57662;51.436;5.978;2023-01-09T00:07:47;37.54;35.01;42.32;;
67308;Laerm;57662;51.436;5.978;2023-01-09T00:07:57;42.85;36.19;54.23;;
67308;Laerm;57662;51.436;5.978;2023-01-09T00:08:07;38.21;35.56;46.15;;
67308;Laerm;57662;51.436;5.978;2023-01-09T00:08:17;37.25;35.49;43.85;;
67308;Laerm;57662;51.436;5.978;2023-01-09T00:08:28;37.39;34.66;46.10;;
67308;Laerm;57662;51.436;5.978;2023-01-09T00:08:38;39.93;35.44;53.16;;
67308;Laerm;57662;51.436;5.978;2023-01-09T00:08:49;38.10;35.58;48.29;;
67308;Laerm;57662;51.436;5.978;2023-01-09T00:08:59;38.41;35.92;45.02;;
67308;Laerm;57662;51.436;5.978;2023-01-09T00:09:09;39.50;35.98;48.45;;
67308;Laerm;57662;51.436;5.978;2023-01-09T00:09:21;40.53;35.59;51.42;;
67308;Laerm;57662;51.436;5.978;2023-01-09T00:09:31;40.47;35.50;51.04;;
67308;Laerm;57662;51.436;5.978;2023-01-09T00:09:42;41.50;36.03;53.33;;
67308;Laerm;57662;51.436;5.978;2023-01-09T00:09:52;37.60;35.79;44.42;;
67308;Laerm;57662;51.436;5.978;2023-01-09T00:10:03;37.36;35.75;40.92;;
67308;Laerm;57662;51.436;5.978;2023-01-09T00:10:14;38.04;35.75;46.09;;
67308;Laerm;57662;51.436;5.978;2023-01-09T00:10:24;36.78;35.16;38.65;;
67308;Laerm;57662;51.436;5.978;2023-01-09T00:10:35;36.93;35.19;39.49;;
67308;Laerm;57662;51.436;5.978;2023-01-09T00:10:45;37.79;35.02;45.43;;
67308;Laerm;57662;51.436;5.978;2023-01-09T00:10:57;38.03;35.58;45.62;;
67308;Laerm;57662;51.436;5.978;2023-01-09T00:11:08;42.79;36.21;57.36;;
67308;Laerm;57662;51.436;5.978;2023-01-09T00:11:19;48.05;35.52;64.65;;
67308;Laerm;57662;51.436;5.978;2023-01-09T00:11:29;38.55;35.93;45.65;;
67308;Laerm;57662;51.436;5.978;2023-01-09T00:11:39;42.97;35.98;56.02;;
67308;Laerm;57662;51.436;5.978;2023-01-09T00:11:50;51.73;36.27;64.11;;
67308;Laerm;57662;51.436;5.978;2023-01-09T00:12:00;43.03;36.52;55.54;;
67308;Laerm;57662;51.436;5.978;2023-01-09T00:12:11;38.37;36.00;47.83;;
67308;Laerm;57662;51.436;5.978;2023-01-09T00:12:21;46.60;36.42;61.30;;
67308;Laerm;57662;51.436;5.978;2023-01-09T00:12:32;44.63;36.82;56.44;;
67308;Laerm;57662;51.436;5.978;2023-01-09T00:12:42;43.56;35.83;54.98;;
67308;Laerm;57662;51.436;5.978;2023-01-09T00:12:53;40.39;35.74;54.35;;
67308;Laerm;57662;51.436;5.978;2023-01-09T00:13:03;39.58;35.13;49.66;;
67308;Laerm;57662;51.436;5.978;2023-01-09T00:13:13;37.47;35.32;44.85;;
67308;Laerm;57662;51.436;5.978;2023-01-09T00:13:24;38.83;35.43;52.25;;
67308;Laerm;57662;51.436;5.978;2023-01-09T00:13:34;43.84;36.06;55.81;;
67308;Laerm;57662;51.436;5.978;2023-01-09T00:13:44;39.95;35.66;54.40;;
67308;Laerm;57662;51.436;5.978;2023-01-09T00:13:56;37.11;34.74;42.72;;
67308;Laerm;57662;51.436;5.978;2023-01-09T00:14:06;37.57;35.11;44.89;;
67308;Laerm;57662;51.436;5.978;2023-01-09T00:14:16;37.31;35.39;44.75;;
67308;Laerm;57662;51.436;5.978;2023-01-09T00:14:27;37.91;35.63;44.51;;
67308;Laerm;57662;51.436;5.978;2023-01-09T00:14:37;37.78;35.49;45.36;;
67308;Laerm;57662;51.436;5.978;2023-01-09T00:14:47;39.44;36.16;49.52;;
67308;Laerm;57662;51.436;5.978;2023-01-09T00:14:57;38.15;35.63;48.78;;
67308;Laerm;57662;51.436;5.978;2023-01-09T00:15:08;37.84;34.75;51.00;;
67308;Laerm;57662;51.436;5.978;2023-01-09T00:15:18;39.67;34.25;51.77;;
67308;Laerm;57662;51.436;5.978;2023-01-09T00:15:28;37.89;34.45;47.17;;
67308;Laerm;57662;51.436;5.978;2023-01-09T00:15:39;38.01;34.21;48.98;;
67308;Laerm;57662;51.436;5.978;2023-01-09T00:15:49;35.87;34.35;42.23;;
67308;Laerm;57662;51.436;5.978;2023-01-09T00:16:00;36.48;34.49;43.84;;
67308;Laerm;57662;51.436;5.978;2023-01-09T00:16:10;36.24;34.45;41.37;;
67308;Laerm;57662;51.436;5.978;2023-01-09T00:16:20;40.71;34.96;51.18;;
67308;Laerm;57662;51.436;5.978;2023-01-09T00:16:31;37.96;34.82;44.94;;
67308;Laerm;57662;51.436;5.978;2023-01-09T00:16:41;36.31;34.09;44.31;;
67308;Laerm;57662;51.436;5.978;2023-01-09T00:16:53;37.08;34.23;45.16;;
67308;Laerm;57662;51.436;5.978;2023-01-09T00:17:03;39.30;34.67;49.20;;
67308;Laerm;57662;51.436;5.978;2023-01-09T00:17:13;37.39;34.86;47.39;;
67308;Laerm;57662;51.436;5.978;2023-01-09T00:17:24;42.22;34.49;60.30;;
67308;Laerm;57662;51.436;5.978;2023-01-09T00:17:34;40.40;35.01;53.07;;
67308;Laerm;57662;51.436;5.978;2023-01-09T00:17:44;37.32;34.58;42.04;;
67308;Laerm;57662;51.436;5.978;2023-01-09T00:17:57;37.39;34.60;45.81;;
67308;Laerm;57662;51.436;5.978;2023-01-09T00:18:07;37.51;34.71;46.04;;
67308;Laerm;57662;51.436;5.978;2023-01-09T00:18:17;40.40;34.34;53.82;;
67308;Laerm;57662;51.436;5.978;2023-01-09T00:18:28;37.64;34.66;44.94;;
67308;Laerm;57662;51.436;5.978;2023-01-09T00:18:38;38.73;34.93;47.52;;
67308;Laerm;57662;51.436;5.978;2023-01-09T00:18:49;37.97;34.46;47.01;;
67308;Laerm;57662;51.436;5.978;2023-01-09T00:18:59;36.02;34.54;39.87;;
67308;Laerm;57662;51.436;5.978;2023-01-09T00:19:10;35.96;34.25;39.72;;
67308;Laerm;57662;51.436;5.978;2023-01-09T00:19:21;35.77;34.27;39.26;;
67308;Laerm;57662;51.436;5.978;2023-01-09T00:19:31;36.56;34.69;38.77;;
67308;Laerm;57662;51.436;5.978;2023-01-09T00:19:42;36.46;34.71;42.67;;
67308;Laerm;57662;51.436;5.978;2023-01-09T00:19:52;36.96;34.47;42.93;;
67308;Laerm;57662;51.436;5.978;2023-01-09T00:20:03;36.35;34.29;41.51;;
67308;Laerm;57662;51.436;5.978;2023-01-09T00:20:15;37.08;34.34;49.92;;
67308;Laerm;57662;51.436;5.978;2023-01-09T00:20:26;39.35;34.55;51.31;;
67308;Laerm;57662;51.436;5.978;2023-01-09T00:20:36;38.11;34.12;50.90;;
67308;Laerm;57662;51.436;5.978;2023-01-09T00:20:46;36.34;34.79;41.26;;
67308;Laerm;57662;51.436;5.978;2023-01-09T00:21:00;38.93;34.78;46.46;;
67308;Laerm;57662;51.436;5.978;2023-01-09T00:21:11;37.24;34.61;47.32;;
67308;Laerm;57662;51.436;5.978;2023-01-09T00:21:21;37.53;34.19;50.81;;
67308;Laerm;57662;51.436;5.978;2023-01-09T00:21:32;36.56;34.31;43.70;;
67308;Laerm;57662;51.436;5.978;2023-01-09T00:21:42;35.86;34.12;42.78;;
67308;Laerm;57662;51.436;5.978;2023-01-09T00:21:52;36.05;34.44;42.66;;
67308;Laerm;57662;51.436;5.978;2023-01-09T00:22:02;36.72;34.51;48.87;;
67308;Laerm;57662;51.436;5.978;2023-01-09T00:22:15;36.28;34.00;49.29;;
67308;Laerm;57662;51.436;5.978;2023-01-09T00:22:25;35.87;34.35;39.64;;
67308;Laerm;57662;51.436;5.978;2023-01-09T00:22:36;36.08;34.27;46.37;;
67308;Laerm;57662;51.436;5.978;2023-01-09T00:22:46;36.43;34.36;44.11;;
67308;Laerm;57662;51.436;5.978;2023-01-09T00:22:56;36.28;34.04;42.73;;
67308;Laerm;57662;51.436;5.978;2023-01-09T00:23:06;36.63;33.94;49.17;;
67308;Laerm;57662;51.436;5.978;2023-01-09T00:23:17;38.11;34.37;50.32;;
67308;Laerm;57662;51.436;5.978;2023-01-09T00:23:27;37.50;34.36;48.81;;
67308;Laerm;57662;51.436;5.978;2023-01-09T00:23:37;36.88;34.45;46.12;;
67308;Laerm;57662;51.436;5.978;2023-01-09T00:23:48;36.35;34.49;41.30;;
67308;Laerm;57662;51.436;5.978;2023-01-09T00:23:58;36.01;34.37;41.15;;
67308;Laerm;57662;51.436;5.978;2023-01-09T00:24:08;38.93;34.11;51.35;;
67308;Laerm;57662;51.436;5.978;2023-01-09T00:24:18;36.08;33.99;42.52;;
67308;Laerm;57662;51.436;5.978;2023-01-09T00:24:29;36.16;34.53;40.76;;
67308;Laerm;57662;51.436;5.978;2023-01-09T00:24:39;36.78;34.42;41.82;;
67308;Laerm;57662;51.436;5.978;2023-01-09T00:24:49;37.42;34.56;45.47;;
67308;Laerm;57662;51.436;5.978;2023-01-09T00:25:00;35.98;34.24;39.63;;
67308;Laerm;57662;51.436;5.978;2023-01-09T00:25:10;37.58;34.49;43.15;;
67308;Laerm;57662;51.436;5.978;2023-01-09T00:25:20;36.09;34.56;38.72;;
67308;Laerm;57662;51.436;5.978;2023-01-09T00:25:31;36.21;34.26;41.87;;
67308;Laerm;57662;51.436;5.978;2023-01-09T00:25:42;36.42;34.44;42.81;;
67308;Laerm;57662;51.436;5.978;2023-01-09T00:26:16;37.23;34.24;50.54;;
67308;Laerm;57662;51.436;5.978;2023-01-09T00:26:27;36.82;34.82;45.56;;
67308;Laerm;57662;51.436;5.978;2023-01-09T00:26:38;38.55;34.39;55.23;;
67308;Laerm;57662;51.436;5.978;2023-01-09T00:26:48;35.56;33.94;37.49;;
67308;Laerm;57662;51.436;5.978;2023-01-09T00:26:58;35.76;34.32;37.55;;
67308;Laerm;57662;51.436;5.978;2023-01-09T00:27:08;36.54;33.81;43.04;;
67308;Laerm;57662;51.436;5.978;2023-01-09T00:27:19;36.34;34.35;45.03;;
67308;Laerm;57662;51.436;5.978;2023-01-09T00:27:30;36.29;34.49;40.60;;
67308;Laerm;57662;51.436;5.978;2023-01-09T00:27:41;36.63;34.36;42.02;;
67308;Laerm;57662;51.436;5.978;2023-01-09T00:27:51;36.02;33.95;43.93;;
67308;Laerm;57662;51.436;5.978;2023-01-09T00:28:02;36.20;34.61;43.90;;
67308;Laerm;57662;51.436;5.978;2023-01-09T00:28:12;36.80;34.88;42.50;;
67308;Laerm;57662;51.436;5.978;2023-01-09T00:28:22;36.13;34.55;40.56;;
67308;Laerm;57662;51.436;5.978;2023-01-09T00:28:33;35.88;34.67;37.44;;
67308;Laerm;57662;51.436;5.978;2023-01-09T00:28:44;35.85;34.49;37.18;;
67308;Laerm;57662;51.436;5.978;2023-01-09T00:28:54;35.81;34.08;37.96;;
67308;Laerm;57662;51.436;5.978;2023-01-09T00:29:04;36.11;34.51;41.96;;
67308;Laerm;57662;51.436;5.978;2023-01-09T00:29:15;36.75;34.65;42.23;;
67308;Laerm;57662;51.436;5.978;2023-01-09T00:29:25;40.74;34.30;50.88;;
67308;Laerm;57662;51.436;5.978;2023-01-09T00:29:35;45.51;40.12;50.14;;
67308;Laerm;57662;51.436;5.978;2023-01-09T00:29:46;42.28;36.95;48.36;;
67308;Laerm;57662;51.436;5.978;2023-01-09T00:29:58;38.63;35.76;43.08;;
67308;Laerm;57662;51.436;5.978;2023-01-09T00:30:09;36.69;35.14;41.62;;
67308;Laerm;57662;51.436;5.978;2023-01-09T00:30:20;36.03;34.65;38.04;;
67308;Laerm;57662;51.436;5.978;2023-01-09T00:30:30;35.85;34.51;38.13;;
67308;Laerm;57662;51.436;5.978;2023-01-09T00:30:40;35.95;34.53;38.06;;
67308;Laerm;57662;51.436;5.978;2023-01-09T00:30:54;36.42;34.77;39.62;;
67308;Laerm;57662;51.436;5.978;2023-01-09T00:31:05;36.49;34.85;42.01;;
67308;Laerm;57662;51.436;5.978;2023-01-09T00:31:16;35.89;34.20;39.92;;
67308;Laerm;57662;51.436;5.978;2023-01-09T00:31:27;36.03;34.53;38.90;;
67308;Laerm;57662;51.436;5.978;2023-01-09T00:31:37;35.55;34.14;37.21;;
67308;Laerm;57662;51.436;5.978;2023-01-09T00:31:47;35.60;34.00;37.63;;
67308;Laerm;57662;51.436;5.978;2023-01-09T00:31:57;35.59;33.59;44.46;;
67308;Laerm;57662;51.436;5.978;2023-01-09T00:32:08;36.55;34.00;45.36;;
67308;Laerm;57662;51.436;5.978;2023-01-09T00:32:19;35.54;33.92;40.48;;
67308;Laerm;57662;51.436;5.978;2023-01-09T00:32:30;35.72;34.04;42.63;;
67308;Laerm;57662;51.436;5.978;2023-01-09T00:32:41;35.52;34.10;37.07;;
67308;Laerm;57662;51.436;5.978;2023-01-09T00:32:52;35.81;33.87;37.82;;
67308;Laerm;57662;51.436;5.978;2023-01-09T00:33:03;36.38;34.66;40.57;;
67308;Laerm;57662;51.436;5.978;2023-01-09T00:33:13;36.49;34.66;38.67;;
67308;Laerm;57662;51.436;5.978;2023-01-09T00:33:25;36.38;34.73;41.98;;
67308;Laerm;57662;51.436;5.978;2023-01-09T00:33:38;37.31;34.35;44.84;;
67308;Laerm;57662;51.436;5.978;2023-01-09T00:33:54;39.29;35.08;46.79;;
67308;Laerm;57662;51.436;5.978;2023-01-09T00:34:05;37.84;35.14;42.77;;
67308;Laerm;57662;51.436;5.978;2023-01-09T00:34:16;38.72;35.26;47.08;;
67308;Laerm;57662;51.436;5.978;2023-01-09T00:34:26;37.88;35.40;41.70;;
67308;Laerm;57662;51.436;5.978;2023-01-09T00:34:37;37.73;35.20;40.77;;
67308;Laerm;57662;51.436;5.978;2023-01-09T00:34:47;37.53;34.34;40.59;;
67308;Laerm;57662;51.436;5.978;2023-01-09T00:34:58;38.31;35.68;41.78;;
67308;Laerm;57662;51.436;5.978;2023-01-09T00:35:08;43.07;36.72;54.03;;
67308;Laerm;57662;51.436;5.978;2023-01-09T00:35:22;37.53;35.79;39.78;;
67308;Laerm;57662;51.436;5.978;2023-01-09T00:35:33;37.01;34.93;38.69;;
67308;Laerm;57662;51.436;5.978;2023-01-09T00:35:43;36.22;34.09;41.36;;
67308;Laerm;57662;51.436;5.978;2023-01-09T00:35:53;36.63;34.20;44.17;;
67308;Laerm;57662;51.436;5.978;2023-01-09T00:36:04;36.21;33.86;49.32;;
67308;Laerm;57662;51.436;5.978;2023-01-09T00:36:15;35.63;34.17;38.45;;
67308;Laerm;57662;51.436;5.978;2023-01-09T00:36:25;35.76;34.28;37.57;;
67308;Laerm;57662;51.436;5.978;2023-01-09T00:36:35;35.75;34.47;37.94;;
67308;Laerm;57662;51.436;5.978;2023-01-09T00:36:45;35.60;33.72;36.98;;
67308;Laerm;57662;51.436;5.978;2023-01-09T00:36:56;36.04;34.12;37.33;;
67308;Laerm;57662;51.436;5.978;2023-01-09T00:37:06;37.85;35.69;40.11;;
67308;Laerm;57662;51.436;5.978;2023-01-09T00:37:21;43.14;34.19;50.66;;
67308;Laerm;57662;51.436;5.978;2023-01-09T00:37:31;48.02;43.30;53.09;;
67308;Laerm;57662;51.436;5.978;2023-01-09T00:37:41;42.28;37.51;46.23;;
67308;Laerm;57662;51.436;5.978;2023-01-09T00:37:52;39.28;35.91;42.66;;
67308;Laerm;57662;51.436;5.978;2023-01-09T00:38:02;37.48;35.50;44.44;;
67308;Laerm;57662;51.436;5.978;2023-01-09T00:38:13;37.69;35.52;42.10;;
67308;Laerm;57662;51.436;5.978;2023-01-09T00:38:23;38.47;35.16;47.65;;
67308;Laerm;57662;51.436;5.978;2023-01-09T00:38:34;36.16;34.76;38.34;;
67308;Laerm;57662;51.436;5.978;2023-01-09T00:38:46;36.16;33.87;41.17;;
67308;Laerm;57662;51.436;5.978;2023-01-09T00:38:56;35.89;34.57;39.37;;
67308;Laerm;57662;51.436;5.978;2023-01-09T00:39:07;36.72;34.21;45.13;;
67308;Laerm;57662;51.436;5.978;2023-01-09T00:39:17;36.22;34.76;40.84;;
67308;Laerm;57662;51.436;5.978;2023-01-09T00:39:27;37.92;34.76;46.57;;
67308;Laerm;57662;51.436;5.978;2023-01-09T00:39:38;36.73;34.57;42.94;;
67308;Laerm;57662;51.436;5.978;2023-01-09T00:39:48;35.95;34.47;37.19;;
67308;Laerm;57662;51.436;5.978;2023-01-09T00:39:59;39.79;34.22;50.77;;
67308;Laerm;57662;51.436;5.978;2023-01-09T00:40:09;41.06;35.45;52.13;;
67308;Laerm;57662;51.436;5.978;2023-01-09T00:40:21;43.04;35.76;53.02;;
67308;Laerm;57662;51.436;5.978;2023-01-09T00:40:31;38.97;35.61;50.89;;
67308;Laerm;57662;51.436;5.978;2023-01-09T00:40:41;38.74;35.73;47.07;;
67308;Laerm;57662;51.436;5.978;2023-01-09T00:40:51;42.12;35.47;52.38;;
67308;Laerm;57662;51.436;5.978;2023-01-09T00:41:03;40.36;35.11;51.35;;
67308;Laerm;57662;51.436;5.978;2023-01-09T00:41:17;36.02;34.10;37.89;;
67308;Laerm;57662;51.436;5.978;2023-01-09T00:41:35;36.10;34.42;39.05;;
67308;Laerm;57662;51.436;5.978;2023-01-09T00:41:48;36.04;34.38;44.56;;
67308;Laerm;57662;51.436;5.978;2023-01-09T00:42:00;35.85;34.00;37.49;;
67308;Laerm;57662;51.436;5.978;2023-01-09T00:42:15;35.97;34.36;40.35;;
67308;Laerm;57662;51.436;5.978;2023-01-09T00:42:26;36.55;34.91;40.39;;
67308;Laerm;57662;51.436;5.978;2023-01-09T00:42:39;36.92;35.03;42.72;;
67308;Laerm;57662;51.436;5.978;2023-01-09T00:42:52;36.32;34.65;39.62;;
67308;Laerm;57662;51.436;5.978;2023-01-09T00:43:04;36.00;34.25;38.61;;
67308;Laerm;57662;51.436;5.978;2023-01-09T00:43:14;35.70;34.18;39.89;;
67308;Laerm;57662;51.436;5.978;2023-01-09T00:43:27;35.70;34.27;38.74;;
67308;Laerm;57662;51.436;5.978;2023-01-09T00:43:43;35.81;33.95;37.32;;
67308;Laerm;57662;51.436;5.978;2023-01-09T00:43:55;35.98;34.39;44.11;;
67308;Laerm;57662;51.436;5.978;2023-01-09T00:44:08;36.32;34.18;46.83;;
67308;Laerm;57662;51.436;5.978;2023-01-09T00:44:25;36.44;34.66;40.26;;
67308;Laerm;57662;51.436;5.978;2023-01-09T00:44:42;37.93;35.00;49.82;;
67308;Laerm;57662;51.436;5.978;2023-01-09T00:44:53;36.79;34.80;44.56;;
67308;Laerm;57662;51.436;5.978;2023-01-09T00:45:07;36.36;34.76;38.00;;
67308;Laerm;57662;51.436;5.978;2023-01-09T00:45:19;36.08;34.26;37.69;;
67308;Laerm;57662;51.436;5.978;2023-01-09T00:45:30;35.97;34.29;37.77;;
67308;Laerm;57662;51.436;5.978;2023-01-09T00:45:40;35.79;34.28;42.60;;
67308;Laerm;57662;51.436;5.978;2023-01-09T00:45:50;35.69;34.15;38.84;;
67308;Laerm;57662;51.436;5.978;2023-01-09T00:46:01;35.90;34.29;43.45;;
67308;Laerm;57662;51.436;5.978;2023-01-09T00:46:13;36.73;34.44;38.97;;
67308;Laerm;57662;51.436;5.978;2023-01-09T00:46:26;37.20;35.72;40.95;;
67308;Laerm;57662;51.436;5.978;2023-01-09T00:46:40;36.58;35.00;38.77;;
67308;Laerm;57662;51.436;5.978;2023-01-09T00:46:53;37.45;35.23;39.92;;
67308;Laerm;57662;51.436;5.978;2023-01-09T00:47:07;36.87;35.08;39.42;;
67308;Laerm;57662;51.436;5.978;2023-01-09T00:47:21;37.07;34.84;44.00;;
67308;Laerm;57662;51.436;5.978;2023-01-09T00:47:34;37.03;34.58;43.76;;
67308;Laerm;57662;51.436;5.978;2023-01-09T00:47:47;37.44;35.02;49.70;;
67308;Laerm;57662;51.436;5.978;2023-01-09T00:48:02;37.30;35.06;47.76;;
67308;Laerm;57662;51.436;5.978;2023-01-09T00:48:16;40.24;36.09;44.43;;
67308;Laerm;57662;51.436;5.978;2023-01-09T00:48:34;37.02;34.66;45.24;;
67308;Laerm;57662;51.436;5.978;2023-01-09T00:48:46;37.39;35.11;45.74;;
67308;Laerm;57662;51.436;5.978;2023-01-09T00:48:57;37.54;34.84;45.30;;
67308;Laerm;57662;51.436;5.978;2023-01-09T00:49:09;41.00;34.85;55.32;;
67308;Laerm;57662;51.436;5.978;2023-01-09T00:49:20;37.84;35.05;48.50;;
67308;Laerm;57662;51.436;5.978;2023-01-09T00:49:31;38.08;34.76;43.54;;
67308;Laerm;57662;51.436;5.978;2023-01-09T00:49:43;37.67;34.83;41.40;;
67308;Laerm;57662;51.436;5.978;2023-01-09T00:49:54;37.10;34.84;40.95;;
67308;Laerm;57662;51.436;5.978;2023-01-09T00:50:09;36.13;34.25;37.67;;
67308;Laerm;57662;51.436;5.978;2023-01-09T00:50:22;36.93;35.15;44.46;;
67308;Laerm;57662;51.436;5.978;2023-01-09T00:50:33;36.15;34.84;37.54;;
67308;Laerm;57662;51.436;5.978;2023-01-09T00:50:44;36.40;34.96;37.75;;
67308;Laerm;57662;51.436;5.978;2023-01-09T00:50:57;36.98;34.97;42.47;;
67308;Laerm;57662;51.436;5.978;2023-01-09T00:51:07;36.57;34.86;40.34;;
67308;Laerm;57662;51.436;5.978;2023-01-09T00:51:18;38.08;34.81;48.04;;
67308;Laerm;57662;51.436;5.978;2023-01-09T00:51:29;36.40;34.97;37.61;;
67308;Laerm;57662;51.436;5.978;2023-01-09T00:51:39;37.46;34.44;42.90;;
67308;Laerm;57662;51.436;5.978;2023-01-09T00:51:50;37.15;34.88;44.81;;
67308;Laerm;57662;51.436;5.978;2023-01-09T00:52:03;42.44;36.23;53.40;;
67308;Laerm;57662;51.436;5.978;2023-01-09T00:52:14;38.97;36.33;48.69;;
67308;Laerm;57662;51.436;5.978;2023-01-09T00:52:25;40.74;36.97;47.60;;
67308;Laerm;57662;51.436;5.978;2023-01-09T00:52:35;44.15;36.40;56.32;;
67308;Laerm;57662;51.436;5.978;2023-01-09T00:52:47;43.89;36.84;54.57;;
67308;Laerm;57662;51.436;5.978;2023-01-09T00:53:00;38.99;36.38;48.85;;
67308;Laerm;57662;51.436;5.978;2023-01-09T00:53:12;39.13;35.38;49.00;;
67308;Laerm;57662;51.436;5.978;2023-01-09T00:53:25;45.77;36.24;58.29;;
67308;Laerm;57662;51.436;5.978;2023-01-09T00:53:36;41.36;36.01;52.01;;
67308;Laerm;57662;51.436;5.978;2023-01-09T00:53:48;44.67;36.25;55.48;;
67308;Laerm;57662;51.436;5.978;2023-01-09T00:54:00;39.65;35.27;50.95;;
67308;Laerm;57662;51.436;5.978;2023-01-09T00:54:11;42.68;34.26;58.14;;
67308;Laerm;57662;51.436;5.978;2023-01-09T00:54:22;36.64;35.05;40.53;;
67308;Laerm;57662;51.436;5.978;2023-01-09T00:54:33;37.28;34.72;47.20;;
67308;Laerm;57662;51.436;5.978;2023-01-09T00:54:43;37.76;34.41;47.94;;
67308;Laerm;57662;51.436;5.978;2023-01-09T00:54:54;36.85;34.22;44.18;;
67308;Laerm;57662;51.436;5.978;2023-01-09T00:55:04;36.72;34.28;39.43;;
67308;Laerm;57662;51.436;5.978;2023-01-09T00:55:14;40.26;34.48;52.54;;
67308;Laerm;57662;51.436;5.978;2023-01-09T00:55:25;37.31;34.85;42.98;;
67308;Laerm;57662;51.436;5.978;2023-01-09T00:55:36;39.42;34.89;50.45;;
67308;Laerm;57662;51.436;5.978;2023-01-09T00:55:47;37.27;34.86;45.72;;
67308;Laerm;57662;51.436;5.978;2023-01-09T00:55:58;36.20;34.42;40.08;;
67308;Laerm;57662;51.436;5.978;2023-01-09T00:56:10;38.43;35.03;49.54;;
67308;Laerm;57662;51.436;5.978;2023-01-09T00:56:22;36.84;34.54;46.27;;
67308;Laerm;57662;51.436;5.978;2023-01-09T00:56:33;36.59;35.02;37.85;;
67308;Laerm;57662;51.436;5.978;2023-01-09T00:56:44;36.23;34.84;38.03;;
67308;Laerm;57662;51.436;5.978;2023-01-09T00:56:55;36.24;34.58;37.82;;
67308;Laerm;57662;51.436;5.978;2023-01-09T00:57:06;36.37;34.59;38.02;;
67308;Laerm;57662;51.436;5.978;2023-01-09T00:57:16;36.40;34.93;37.97;;
67308;Laerm;57662;51.436;5.978;2023-01-09T00:57:27;36.38;34.41;37.85;;
67308;Laerm;57662;51.436;5.978;2023-01-09T00:57:37;41.47;35.61;49.18;;
67308;Laerm;57662;51.436;5.978;2023-01-09T00:57:47;44.78;39.23;48.92;;
67308;Laerm;57662;51.436;5.978;2023-01-09T00:57:58;37.95;35.08;43.69;;
67308;Laerm;57662;51.436;5.978;2023-01-09T00:58:08;36.16;34.23;41.05;;
67308;Laerm;57662;51.436;5.978;2023-01-09T00:58:18;40.79;34.05;48.07;;
67308;Laerm;57662;51.436;5.978;2023-01-09T00:58:30;39.13;34.66;43.68;;
67308;Laerm;57662;51.436;5.978;2023-01-09T00:58:41;37.36;35.28;39.70;;
67308;Laerm;57662;51.436;5.978;2023-01-09T00:58:51;43.47;36.69;48.66;;
67308;Laerm;57662;51.436;5.978;2023-01-09T00:59:02;44.16;40.33;48.38;;
67308;Laerm;57662;51.436;5.978;2023-01-09T00:59:13;46.97;42.39;54.16;;
67308;Laerm;57662;51.436;5.978;2023-01-09T00:59:23;54.21;46.80;60.74;;
67308;Laerm;57662;51.436;5.978;2023-01-09T00:59:33;56.61;47.34;60.63;;
67308;Laerm;57662;51.436;5.978;2023-01-09T00:59:44;52.35;48.94;55.78;;
67308;Laerm;57662;51.436;5.978;2023-01-09T00:59:54;53.91;45.91;57.47;;
67308;Laerm;57662;51.436;5.978;2023-01-09T01:00:04;61.27;55.20;67.52;;
67308;Laerm;57662;51.436;5.978;2023-01-09T01:00:15;56.50;52.03;60.11;;
67308;Laerm;57662;51.436;5.978;2023-01-09T01:00:25;56.54;51.73;61.41;;
67308;Laerm;57662;51.436;5.978;2023-01-09T01:00:36;55.63;51.25;58.97;;
67308;Laerm;57662;51.436;5.978;2023-01-09T01:00:46;48.62;43.77;54.47;;
67308;Laerm;57662;51.436;5.978;2023-01-09T01:00:56;43.39;40.51;45.61;;
67308;Laerm;57662;51.436;5.978;2023-01-09T01:01:07;39.93;37.81;43.19;;
67308;Laerm;57662;51.436;5.978;2023-01-09T01:01:17;38.46;35.74;40.81;;
67308;Laerm;57662;51.436;5.978;2023-01-09T01:01:28;37.63;35.53;43.02;;
67308;Laerm;57662;51.436;5.978;2023-01-09T01:01:38;37.13;34.90;43.39;;
67308;Laerm;57662;51.436;5.978;2023-01-09T01:01:49;37.27;35.96;38.81;;
67308;Laerm;57662;51.436;5.978;2023-01-09T01:01:59;43.33;35.69;51.18;;